Time;durP1;ratioP1;P1;durP2;ratioP2;P2;SDS_P1;SDS_P2;PMS_P1;PMS_P2;Temp;Humidity;BMP_temperature;BMP_pressure;BME280_temperature;BME280_humidity;BME280_pressure;Samples;Min_cycle;Max_cycle;Signal;HPM_P1;HPM_P2
2021/03/01 00:01:56;;;;;;;4.70;3.47;;;22.40;31.80;;;;;;4990562;28;20414;-63
2021/03/01 00:04:22;;;;;;;4.80;3.50;;;22.40;31.70;;;;;;4991009;28;20794;-63
2021/03/01 00:06:47;;;;;;;4.60;3.10;;;22.40;31.70;;;;;;4991179;28;20878;-63
2021/03/01 00:09:13;;;;;;;4.30;3.25;;;22.30;31.60;;;;;;4990501;28;20386;-64
2021/03/01 00:11:39;;;;;;;4.63;3.53;;;22.40;31.60;;;;;;4991211;28;20430;-63
2021/03/01 00:14:04;;;;;;;4.45;3.35;;;22.30;31.60;;;;;;4991582;28;20433;-63
2021/03/01 00:16:30;;;;;;;4.73;3.37;;;22.30;31.50;;;;;;4990847;28;20410;-63
2021/03/01 00:18:56;;;;;;;4.55;3.38;;;22.30;31.50;;;;;;4990281;28;20429;-63
2021/03/01 00:21:21;;;;;;;4.85;3.55;;;22.30;31.50;;;;;;4991820;28;20422;-64
2021/03/01 00:23:47;;;;;;;4.47;3.40;;;22.30;31.50;;;;;;4991527;28;20992;-63
2021/03/01 00:26:13;;;;;;;4.57;3.40;;;22.30;31.50;;;;;;4992149;28;20937;-64
2021/03/01 00:28:40;;;;;;;4.20;3.30;;;22.30;31.40;;;;;;4991784;28;20790;-64
2021/03/01 00:31:06;;;;;;;4.07;3.05;;;22.30;31.40;;;;;;4991663;28;20394;-63
2021/03/01 00:33:32;;;;;;;5.87;3.70;;;22.30;31.40;;;;;;4991977;28;20747;-63
2021/03/01 00:35:57;;;;;;;5.15;3.45;;;22.30;31.30;;;;;;4991934;28;20471;-63
2021/03/01 00:38:23;;;;;;;4.60;3.57;;;22.30;31.30;;;;;;4992021;28;20954;-64
2021/03/01 00:40:49;;;;;;;5.28;3.47;;;22.30;31.30;;;;;;4991592;28;20855;-63
2021/03/01 00:43:14;;;;;;;4.32;3.30;;;22.30;31.30;;;;;;4991558;28;20390;-64
2021/03/01 00:45:40;;;;;;;4.82;3.50;;;22.30;31.20;;;;;;4991443;28;20394;-63
2021/03/01 00:48:06;;;;;;;4.50;3.10;;;22.30;31.20;;;;;;4991435;28;20537;-64
2021/03/01 00:50:32;;;;;;;4.33;3.30;;;22.30;31.20;;;;;;4991915;28;20783;-64
2021/03/01 00:52:57;;;;;;;4.82;3.30;;;22.30;31.20;;;;;;4991242;28;20395;-63
2021/03/01 00:55:23;;;;;;;4.10;3.20;;;22.20;31.10;;;;;;4991832;28;20410;-64
2021/03/01 00:57:48;;;;;;;4.22;3.10;;;22.30;31.10;;;;;;4991620;28;20393;-63
2021/03/01 01:00:18;;;;;;;4.00;3.00;;;22.20;31.00;;;;;;4991613;28;20398;-64
2021/03/01 01:02:44;;;;;;;4.00;3.10;;;22.20;31.00;;;;;;4991612;28;20449;-64
2021/03/01 01:05:11;;;;;;;4.25;3.28;;;22.20;31.00;;;;;;4991276;28;20445;-64
2021/03/01 01:07:37;;;;;;;5.13;3.50;;;22.20;31.10;;;;;;4991699;28;20398;-64
2021/03/01 01:10:06;;;;;;;3.92;3.20;;;22.20;31.00;;;;;;4990741;28;20405;-64
2021/03/01 01:12:35;;;;;;;3.97;3.10;;;22.20;31.00;;;;;;4991174;28;20474;-63
2021/03/01 01:15:07;;;;;;;4.15;3.38;;;22.20;31.00;;;;;;4990787;28;20402;-63
2021/03/01 01:17:32;;;;;;;3.63;2.85;;;22.20;30.90;;;;;;4991574;28;20398;-63
2021/03/01 01:19:58;;;;;;;4.00;2.80;;;22.20;31.00;;;;;;4990783;28;20490;-64
2021/03/01 01:22:23;;;;;;;3.83;3.00;;;22.20;30.90;;;;;;4991514;28;20425;-63
2021/03/01 01:24:49;;;;;;;4.10;2.87;;;22.20;30.90;;;;;;4991478;28;20394;-63
2021/03/01 01:27:15;;;;;;;4.45;3.10;;;22.20;30.90;;;;;;4991043;28;20559;-62
2021/03/01 01:29:40;;;;;;;4.13;3.13;;;22.20;30.90;;;;;;4991506;28;20848;-63
2021/03/01 01:32:06;;;;;;;4.15;3.08;;;22.20;30.90;;;;;;4991481;28;20394;-63
2021/03/01 01:34:31;;;;;;;3.73;2.80;;;22.20;30.80;;;;;;4991458;28;20519;-63
2021/03/01 01:36:57;;;;;;;3.47;2.80;;;22.20;30.80;;;;;;4992368;28;20428;-63
2021/03/01 01:39:23;;;;;;;3.33;2.60;;;22.20;30.80;;;;;;4994944;28;20397;-63
2021/03/01 01:41:48;;;;;;;3.30;2.80;;;22.20;30.80;;;;;;4994828;28;20422;-63
2021/03/01 01:44:14;;;;;;;3.70;3.00;;;22.20;30.80;;;;;;4994762;28;20497;-63
2021/03/01 01:46:40;;;;;;;3.30;2.80;;;22.20;30.80;;;;;;4994620;28;20430;-63
2021/03/01 01:49:05;;;;;;;3.50;2.75;;;22.20;30.80;;;;;;4994247;28;20478;-64
2021/03/01 01:51:31;;;;;;;3.17;2.70;;;22.20;30.70;;;;;;4994672;28;20396;-63
2021/03/01 01:53:57;;;;;;;3.35;2.50;;;22.20;30.70;;;;;;4994544;28;20437;-63
2021/03/01 01:56:23;;;;;;;3.30;2.80;;;22.20;30.70;;;;;;4994460;28;20394;-63
2021/03/01 01:58:49;;;;;;;3.45;2.70;;;22.20;30.70;;;;;;4994532;28;20481;-63
2021/03/01 02:01:14;;;;;;;3.60;2.90;;;22.10;30.60;;;;;;4993824;28;20820;-64
2021/03/01 02:03:46;;;;;;;3.30;2.70;;;22.10;30.60;;;;;;4993996;28;20467;-63
2021/03/01 02:06:11;;;;;;;4.05;3.00;;;22.10;30.60;;;;;;4993712;28;20398;-63
2021/03/01 02:08:48;;;;;;;3.83;2.75;;;22.10;30.60;;;;;;4994410;28;20378;-63
2021/03/01 02:11:26;;;;;;;3.78;2.90;;;22.10;30.60;;;;;;4993922;28;20434;-63
2021/03/01 02:14:06;;;;;;;3.57;2.50;;;22.10;30.60;;;;;;4994008;28;20410;-63
2021/03/01 02:16:35;;;;;;;3.30;2.60;;;22.10;30.60;;;;;;4994308;28;20399;-64
2021/03/01 02:19:02;;;;;;;3.70;2.83;;;22.10;30.60;;;;;;4993820;28;20394;-64
2021/03/01 02:21:28;;;;;;;3.80;2.83;;;22.10;30.60;;;;;;4993023;28;20493;-64
2021/03/01 02:23:54;;;;;;;3.78;2.63;;;22.10;30.60;;;;;;4994272;28;20485;-63
2021/03/01 02:26:29;;;;;;;4.18;2.70;;;22.10;30.60;;;;;;4994128;28;20941;-63
2021/03/01 02:29:04;;;;;;;3.17;2.40;;;22.10;30.50;;;;;;4993014;28;20490;-62
2021/03/01 02:31:32;;;;;;;3.23;2.70;;;22.10;30.50;;;;;;4993892;28;20405;-64
2021/03/01 02:34:00;;;;;;;3.60;2.72;;;22.10;30.50;;;;;;4993841;28;20409;-63
2021/03/01 02:36:32;;;;;;;3.85;2.70;;;22.00;30.40;;;;;;4993993;28;20481;-63
2021/03/01 02:39:01;;;;;;;3.20;2.60;;;22.00;30.40;;;;;;4993442;28;20414;-64
2021/03/01 02:41:28;;;;;;;3.17;2.53;;;22.00;30.40;;;;;;4993691;28;20917;-64
2021/03/01 02:43:54;;;;;;;3.10;2.50;;;22.00;30.40;;;;;;4993666;28;20628;-64
2021/03/01 02:46:21;;;;;;;2.60;2.38;;;22.00;30.40;;;;;;4993585;28;20910;-62
2021/03/01 02:48:49;;;;;;;3.13;2.50;;;22.00;30.30;;;;;;4993579;28;20908;-63
2021/03/01 02:51:16;;;;;;;3.10;2.50;;;22.00;30.30;;;;;;5007983;28;20453;-63
2021/03/01 02:53:43;;;;;;;3.25;2.60;;;22.00;30.30;;;;;;5008637;28;20387;-63
2021/03/01 02:56:09;;;;;;;2.97;2.47;;;22.00;30.30;;;;;;4993706;28;20455;-63
2021/03/01 02:58:38;;;;;;;2.95;2.30;;;22.00;30.30;;;;;;5007779;28;20390;-63
2021/03/01 03:01:05;;;;;;;2.95;2.40;;;22.00;30.30;;;;;;4992949;28;20445;-63
2021/03/01 03:03:32;;;;;;;3.10;2.38;;;22.00;30.30;;;;;;4993427;28;20397;-63
2021/03/01 03:05:59;;;;;;;3.50;2.50;;;22.00;30.30;;;;;;4993332;28;20401;-63
2021/03/01 03:08:26;;;;;;;3.20;2.42;;;22.00;30.30;;;;;;4993377;28;20395;-62
2021/03/01 03:10:52;;;;;;;3.05;2.40;;;22.00;30.30;;;;;;4993230;28;21033;-63
2021/03/01 03:13:20;;;;;;;3.00;2.35;;;21.90;30.20;;;;;;4992445;28;20410;-63
2021/03/01 03:15:50;;;;;;;2.63;2.38;;;22.00;30.20;;;;;;4992300;28;20477;-64
2021/03/01 03:18:18;;;;;;;3.00;2.60;;;22.00;30.20;;;;;;4993187;28;20952;-63
2021/03/01 03:20:44;;;;;;;2.63;2.30;;;21.90;30.20;;;;;;4992905;28;20414;-63
2021/03/01 03:23:10;;;;;;;2.80;2.40;;;22.00;30.20;;;;;;4992674;28;20468;-64
2021/03/01 03:25:36;;;;;;;3.13;2.25;;;22.00;30.20;;;;;;4993070;28;20390;-63
2021/03/01 03:28:04;;;;;;;2.90;2.30;;;21.90;30.10;;;;;;4992910;28;20408;-63
2021/03/01 03:30:30;;;;;;;2.95;2.60;;;21.90;30.10;;;;;;4992933;28;20905;-63
2021/03/01 03:32:56;;;;;;;3.00;2.40;;;21.90;30.10;;;;;;4992765;28;20399;-62
2021/03/01 03:35:21;;;;;;;2.85;2.50;;;21.90;30.10;;;;;;4992197;28;20394;-64
2021/03/01 03:37:58;;;;;;;2.90;2.37;;;21.90;30.10;;;;;;4992756;28;20390;-63
2021/03/01 03:40:25;;;;;;;3.83;2.53;;;21.90;30.70;;;;;;4992782;28;20483;-62
2021/03/01 03:42:53;;;;;;;3.22;2.45;;;21.90;30.10;;;;;;4991444;28;20497;-63
2021/03/01 03:45:20;;;;;;;2.80;2.40;;;21.90;30.10;;;;;;4992250;28;20755;-62
2021/03/01 03:47:50;;;;;;;2.93;2.40;;;21.90;30.10;;;;;;4992184;28;20507;-62
2021/03/01 03:50:17;;;;;;;3.17;2.53;;;21.90;30.10;;;;;;4992299;28;20452;-64
2021/03/01 03:52:46;;;;;;;3.05;2.38;;;21.90;30.10;;;;;;4992513;28;20480;-63
2021/03/01 03:55:16;;;;;;;3.10;2.40;;;21.80;30.00;;;;;;4990582;28;20389;-64
2021/03/01 03:57:47;;;;;;;2.95;2.45;;;21.80;30.00;;;;;;4991153;28;20395;-63
2021/03/01 04:00:14;;;;;;;3.03;2.50;;;21.90;30.00;;;;;;4991029;28;20481;-64
2021/03/01 04:02:42;;;;;;;3.27;2.60;;;21.90;30.00;;;;;;4992215;28;20470;-63
2021/03/01 04:05:12;;;;;;;3.22;2.28;;;21.90;30.00;;;;;;4991759;28;20391;-63
2021/03/01 04:07:38;;;;;;;3.10;2.45;;;21.80;30.00;;;;;;4992271;28;20397;-63
2021/03/01 04:10:08;;;;;;;3.50;2.53;;;21.80;30.40;;;;;;4991833;28;20414;-63
2021/03/01 04:12:36;;;;;;;3.95;2.20;;;21.70;30.10;;;;;;4990761;28;20473;-63
2021/03/01 04:15:05;;;;;;;4.00;2.33;;;21.80;30.60;;;;;;4991961;28;20758;-63
2021/03/01 04:17:34;;;;;;;4.45;2.40;;;21.80;31.20;;;;;;4990896;28;20720;-64
2021/03/01 04:20:01;;;;;;;5.55;2.20;;;21.80;31.10;;;;;;4991546;28;20970;-63
2021/03/01 04:22:28;;;;;;;3.40;2.47;;;21.90;31.80;;;;;;4992616;28;20906;-65
2021/03/01 04:24:54;;;;;;;3.43;2.50;;;21.80;30.70;;;;;;4991580;28;20548;-62
2021/03/01 04:27:21;;;;;;;3.50;2.28;;;21.80;31.00;;;;;;4990489;28;20464;-62
2021/03/01 04:29:48;;;;;;;3.90;2.20;;;21.80;30.80;;;;;;4990055;28;20411;-60
2021/03/01 04:32:15;;;;;;;3.65;2.17;;;21.90;31.20;;;;;;4990183;28;20421;-62
2021/03/01 04:34:41;;;;;;;7.20;2.60;;;21.90;32.10;;;;;;4989340;28;20398;-62
2021/03/01 04:37:08;;;;;;;6.88;2.38;;;21.80;32.90;;;;;;4988281;28;20410;-60
2021/03/01 04:39:34;;;;;;;4.63;2.30;;;21.90;32.90;;;;;;4989864;28;20382;-63
2021/03/01 04:41:59;;;;;;;4.93;2.23;;;22.00;32.60;;;;;;4991169;28;20741;-65
2021/03/01 04:44:25;;;;;;;4.78;2.45;;;21.90;32.40;;;;;;4991577;28;20403;-63
2021/03/01 04:46:58;;;;;;;4.28;2.50;;;21.90;31.90;;;;;;4991398;28;20405;-62
2021/03/01 04:49:24;;;;;;;5.00;2.10;;;21.80;32.40;;;;;;4990981;28;20417;-63
2021/03/01 04:51:51;;;;;;;4.75;2.40;;;21.90;33.20;;;;;;4991444;28;20759;-64
2021/03/01 04:54:17;;;;;;;5.18;2.30;;;22.00;32.90;;;;;;4991545;28;20405;-65
2021/03/01 04:56:46;;;;;;;5.05;2.30;;;22.00;32.80;;;;;;4991410;28;20394;-65
2021/03/01 04:59:18;;;;;;;6.03;2.50;;;22.00;32.50;;;;;;4991308;28;20751;-65
2021/03/01 05:01:45;;;;;;;4.55;2.13;;;21.90;32.90;;;;;;4991487;28;20913;-65
2021/03/01 05:04:11;;;;;;;4.68;2.40;;;21.90;32.50;;;;;;4991705;28;20501;-65
2021/03/01 05:06:38;;;;;;;6.18;2.28;;;21.90;31.90;;;;;;4991615;28;20402;-65
2021/03/01 05:09:04;;;;;;;5.47;2.30;;;21.90;31.80;;;;;;4991343;28;21093;-65
2021/03/01 05:11:35;;;;;;;8.77;2.83;;;21.90;32.10;;;;;;4994946;28;20457;-65
2021/03/01 05:14:02;;;;;;;14.13;3.13;;;21.90;31.40;;;;;;4995297;28;20462;-65
2021/03/01 05:16:29;;;;;;;13.15;3.10;;;21.90;31.00;;;;;;4995286;28;20398;-64
2021/03/01 05:18:55;;;;;;;11.82;3.00;;;21.80;30.80;;;;;;4995282;28;20390;-65
2021/03/01 05:21:21;;;;;;;8.93;2.88;;;21.80;30.80;;;;;;4995055;28;20814;-65
2021/03/01 05:23:47;;;;;;;9.18;3.03;;;21.80;30.40;;;;;;4995179;28;20874;-65
2021/03/01 05:26:14;;;;;;;9.88;2.80;;;21.80;30.30;;;;;;4995274;28;20405;-65
2021/03/01 05:28:40;;;;;;;9.85;2.85;;;21.80;30.40;;;;;;4994933;28;20394;-64
2021/03/01 05:31:06;;;;;;;6.82;2.50;;;21.80;30.40;;;;;;4988393;28;20481;-64
2021/03/01 05:33:33;;;;;;;7.57;2.60;;;21.80;30.30;;;;;;4984654;28;20398;-63
2021/03/01 05:35:59;;;;;;;6.20;2.38;;;21.80;30.40;;;;;;4980777;28;20412;-65
2021/03/01 05:38:25;;;;;;;7.50;2.40;;;21.80;30.30;;;;;;4982408;28;20498;-64
2021/03/01 05:40:51;;;;;;;6.68;2.42;;;21.80;30.30;;;;;;4979534;28;20407;-64
2021/03/01 05:43:18;;;;;;;6.45;2.50;;;21.80;30.30;;;;;;4978027;28;20400;-64
2021/03/01 05:45:45;;;;;;;7.78;2.70;;;21.80;30.40;;;;;;4986169;28;20406;-65
2021/03/01 05:48:11;;;;;;;6.13;2.53;;;21.70;30.30;;;;;;4979966;28;20408;-64
2021/03/01 05:50:41;;;;;;;7.35;2.90;;;21.70;30.30;;;;;;4991076;28;20410;-63
2021/03/01 05:53:12;;;;;;;7.68;2.70;;;21.70;30.40;;;;;;4981001;28;20798;-64
2021/03/01 05:55:38;;;;;;;5.70;2.40;;;21.60;30.50;;;;;;4984353;28;20405;-65
2021/03/01 05:58:07;;;;;;;7.15;2.60;;;21.70;30.50;;;;;;4974749;28;20392;-65
2021/03/01 06:00:34;;;;;;;7.80;2.58;;;21.60;30.50;;;;;;4974975;28;20915;-65
2021/03/01 06:03:01;;;;;;;5.32;2.47;;;21.70;30.60;;;;;;4974512;28;20940;-65
2021/03/01 06:05:26;;;;;;;7.40;2.70;;;21.70;30.60;;;;;;4973509;28;20475;-64
2021/03/01 06:07:55;;;;;;;5.93;2.40;;;21.70;30.60;;;;;;4974517;28;20440;-63
2021/03/01 06:10:21;;;;;;;5.53;2.33;;;21.70;30.50;;;;;;4974934;28;20443;-64
2021/03/01 06:12:47;;;;;;;5.70;2.37;;;21.60;30.50;;;;;;4974105;28;20458;-65
2021/03/01 06:15:13;;;;;;;5.68;2.42;;;21.70;30.50;;;;;;4974425;28;20396;-64
2021/03/01 06:17:39;;;;;;;4.45;2.30;;;21.60;30.30;;;;;;4974762;28;20472;-64
2021/03/01 06:20:08;;;;;;;3.90;2.30;;;21.70;30.40;;;;;;4974719;28;20479;-64
2021/03/01 06:22:42;;;;;;;7.03;2.30;;;21.60;30.30;;;;;;4973985;28;20419;-64
2021/03/01 06:25:11;;;;;;;3.08;2.20;;;21.60;30.30;;;;;;4974372;28;20399;-64
2021/03/01 06:28:04;;;;;;;3.88;2.28;;;21.60;30.30;;;;;;4973302;28;20402;-64
2021/03/01 06:30:30;;;;;;;4.57;2.05;;;21.60;30.30;;;;;;4971959;28;20496;-65
2021/03/01 06:33:15;;;;;;;4.00;2.40;;;21.60;30.30;;;;;;4974455;28;20491;-64
2021/03/01 06:35:50;;;;;;;3.42;2.20;;;21.60;30.30;;;;;;4973662;28;20900;-64
2021/03/01 06:38:29;;;;;;;4.55;2.30;;;21.60;30.20;;;;;;4974454;28;20400;-63
2021/03/01 06:41:17;;;;;;;3.20;2.10;;;21.60;30.30;;;;;;4974293;28;20558;-64
2021/03/01 06:44:00;;;;;;;3.63;2.33;;;21.60;30.30;;;;;;4974196;28;20503;-64
2021/03/01 06:46:33;;;;;;;4.60;2.40;;;21.60;30.30;;;;;;4972993;28;20799;-64
2021/03/01 06:49:13;;;;;;;3.65;2.20;;;21.60;30.30;;;;;;4974200;28;20400;-65
2021/03/01 06:51:39;;;;;;;3.08;2.20;;;21.60;30.30;;;;;;4974123;28;20388;-64
2021/03/01 06:54:05;;;;;;;3.75;2.53;;;21.60;30.20;;;;;;4974275;28;20388;-65
2021/03/01 06:56:43;;;;;;;3.95;2.30;;;21.60;30.20;;;;;;4974169;28;20487;-65
2021/03/01 06:59:16;;;;;;;3.00;2.28;;;21.60;30.20;;;;;;4972933;28;20392;-64
2021/03/01 07:01:58;;;;;;;3.13;2.08;;;21.60;30.20;;;;;;4973889;28;20471;-65
2021/03/01 07:04:25;;;;;;;2.78;2.10;;;21.60;30.10;;;;;;4974019;28;20491;-65
2021/03/01 07:06:54;;;;;;;4.50;2.28;;;21.50;30.10;;;;;;4973973;28;20400;-65
2021/03/01 07:09:22;;;;;;;3.47;2.20;;;21.60;30.10;;;;;;4973432;28;20396;-64
2021/03/01 07:11:48;;;;;;;3.13;2.10;;;21.60;30.00;;;;;;4973686;28;20408;-65
2021/03/01 07:14:20;;;;;;;2.70;2.10;;;21.60;30.00;;;;;;4973714;28;20749;-64
2021/03/01 07:16:47;;;;;;;2.50;2.20;;;21.60;30.00;;;;;;4973249;28;20407;-64
2021/03/01 07:19:16;;;;;;;2.53;2.20;;;21.60;30.60;;;;;;4973176;28;20436;-64
2021/03/01 07:21:44;;;;;;;2.60;2.10;;;21.60;30.00;;;;;;4973609;28;20423;-65
2021/03/01 07:24:10;;;;;;;3.03;2.20;;;21.60;30.00;;;;;;4973259;28;20454;-65
2021/03/01 07:26:37;;;;;;;2.88;2.25;;;21.60;30.00;;;;;;4972498;28;20907;-64
2021/03/01 07:29:11;;;;;;;2.55;2.10;;;21.60;30.00;;;;;;4973558;28;20388;-65
2021/03/01 07:31:40;;;;;;;2.63;2.22;;;21.60;30.00;;;;;;4973263;28;20396;-64
2021/03/01 07:34:09;;;;;;;3.85;2.30;;;21.60;30.00;;;;;;4973527;28;20392;-64
2021/03/01 07:36:37;;;;;;;3.22;2.20;;;21.60;30.00;;;;;;4973392;28;20396;-65
2021/03/01 07:39:05;;;;;;;2.85;2.20;;;21.60;30.00;;;;;;4973382;28;20396;-64
2021/03/01 07:41:31;;;;;;;2.67;2.33;;;21.60;30.00;;;;;;4972750;28;20448;-65
2021/03/01 07:43:58;;;;;;;3.30;2.17;;;21.60;30.00;;;;;;4972442;28;20428;-65
2021/03/01 07:46:26;;;;;;;2.78;2.17;;;21.70;30.00;;;;;;4973273;28;20419;-65
2021/03/01 07:48:52;;;;;;;2.90;2.13;;;21.70;30.00;;;;;;4973090;28;20915;-64
2021/03/01 07:51:42;;;;;;;2.50;2.20;;;21.70;29.90;;;;;;4972656;28;20403;-65
2021/03/01 07:54:08;;;;;;;2.80;2.30;;;21.70;29.90;;;;;;4973083;28;20398;-64
2021/03/01 07:56:40;;;;;;;2.63;2.10;;;21.70;29.90;;;;;;4973121;28;20417;-65
2021/03/01 07:59:08;;;;;;;2.67;2.20;;;21.70;29.90;;;;;;4971811;28;20449;-64
2021/03/01 08:01:35;;;;;;;2.80;2.20;;;21.70;29.90;;;;;;4972457;28;20419;-64
2021/03/01 08:04:03;;;;;;;2.70;2.10;;;21.70;29.90;;;;;;4971552;28;20432;-64
2021/03/01 08:06:55;;;;;;;2.70;2.28;;;21.70;29.90;;;;;;4972720;28;20478;-65
2021/03/01 08:09:52;;;;;;;2.30;2.10;;;21.70;29.90;;;;;;4972476;28;20396;-64
2021/03/01 08:12:32;;;;;;;3.38;2.35;;;21.70;29.90;;;;;;4960708;28;20504;-64
2021/03/01 08:15:08;;;;;;;2.50;2.28;;;21.80;29.90;;;;;;4972685;28;20399;-64
2021/03/01 08:17:40;;;;;;;2.60;2.00;;;21.70;29.80;;;;;;4972402;28;20388;-64
2021/03/01 08:20:14;;;;;;;2.85;2.00;;;21.80;29.80;;;;;;4972783;28;20756;-64
2021/03/01 08:23:02;;;;;;;2.37;2.10;;;21.90;29.80;;;;;;4971864;28;20420;-64
2021/03/01 08:25:49;;;;;;;2.75;2.22;;;22.00;29.70;;;;;;4972439;28;20384;-64
2021/03/01 08:28:23;;;;;;;3.10;2.33;;;22.00;29.70;;;;;;4972391;28;20764;-65
2021/03/01 08:30:52;;;;;;;2.42;2.15;;;22.10;29.60;;;;;;4971980;28;20423;-64
2021/03/01 08:33:18;;;;;;;2.80;2.22;;;22.10;29.60;;;;;;4971915;28;20785;-64
2021/03/01 08:35:43;;;;;;;2.50;2.08;;;22.10;29.60;;;;;;4972641;28;20401;-64
2021/03/01 08:38:11;;;;;;;2.80;2.33;;;22.20;29.60;;;;;;4972352;28;20738;-65
2021/03/01 08:40:51;;;;;;;2.58;2.20;;;22.20;29.50;;;;;;4972464;28;20399;-64
2021/03/01 08:43:36;;;;;;;3.50;2.30;;;22.20;29.50;;;;;;4972219;28;20400;-65
2021/03/01 08:46:25;;;;;;;2.85;2.40;;;22.20;29.50;;;;;;4975164;28;20396;-65
2021/03/01 08:48:56;;;;;;;2.58;2.10;;;22.30;29.50;;;;;;4975941;28;20412;-65
2021/03/01 08:51:23;;;;;;;2.95;2.20;;;22.30;29.50;;;;;;4976044;28;20387;-65
2021/03/01 08:53:52;;;;;;;2.70;2.20;;;22.30;29.40;;;;;;4976251;28;20746;-65
2021/03/01 08:56:20;;;;;;;2.30;2.10;;;22.30;29.40;;;;;;4975608;28;20400;-64
2021/03/01 08:58:46;;;;;;;2.40;2.20;;;22.30;29.40;;;;;;4975981;28;20404;-64
2021/03/01 09:01:11;;;;;;;2.88;2.38;;;22.30;29.40;;;;;;4976291;28;20426;-64
2021/03/01 09:03:42;;;;;;;3.13;2.30;;;22.30;29.40;;;;;;4975724;28;20404;-65
2021/03/01 09:06:21;;;;;;;2.83;2.25;;;22.30;29.40;;;;;;4976445;28;20423;-65
2021/03/01 09:08:50;;;;;;;2.60;2.20;;;22.30;29.30;;;;;;4976105;28;20388;-65
2021/03/01 09:11:21;;;;;;;2.55;2.15;;;22.30;29.30;;;;;;4975804;28;20399;-64
2021/03/01 09:13:48;;;;;;;3.00;2.20;;;22.40;29.30;;;;;;4975798;28;20423;-64
2021/03/01 09:16:16;;;;;;;2.92;2.20;;;22.40;29.30;;;;;;4975209;28;20481;-64
2021/03/01 09:18:44;;;;;;;2.63;2.23;;;22.40;29.20;;;;;;4975776;28;20423;-64
2021/03/01 09:21:13;;;;;;;2.92;2.20;;;22.40;29.20;;;;;;4975717;28;20424;-64
2021/03/01 09:23:52;;;;;;;3.00;2.30;;;22.50;29.10;;;;;;4975345;28;20396;-65
2021/03/01 09:26:34;;;;;;;2.33;2.13;;;22.50;29.20;;;;;;4975818;28;20404;-65
2021/03/01 09:29:04;;;;;;;2.42;2.10;;;22.50;29.10;;;;;;4975536;28;20447;-65
2021/03/01 09:31:31;;;;;;;2.17;1.92;;;22.50;29.10;;;;;;4974031;28;20412;-64
2021/03/01 09:33:57;;;;;;;2.53;2.10;;;22.50;29.10;;;;;;4975432;28;20919;-65
2021/03/01 09:36:28;;;;;;;2.25;1.88;;;22.50;29.10;;;;;;4975723;28;20396;-65
2021/03/01 09:38:53;;;;;;;2.85;2.00;;;22.50;29.20;;;;;;4975459;28;20479;-64
2021/03/01 09:41:20;;;;;;;2.33;2.00;;;22.50;29.20;;;;;;4975368;28;20515;-64
2021/03/01 09:43:49;;;;;;;2.33;2.10;;;22.50;29.20;;;;;;4975226;28;20395;-64
2021/03/01 09:46:16;;;;;;;2.10;1.80;;;22.50;29.20;;;;;;4975464;28;20408;-65
2021/03/01 09:48:58;;;;;;;2.30;2.08;;;22.50;29.20;;;;;;4974837;28;20388;-65
2021/03/01 09:51:25;;;;;;;2.78;1.92;;;22.50;29.10;;;;;;4974045;28;20392;-65
2021/03/01 09:53:51;;;;;;;2.53;1.95;;;22.50;29.10;;;;;;4973499;28;20475;-65
2021/03/01 09:56:17;;;;;;;2.33;1.90;;;22.50;29.10;;;;;;4973132;28;20403;-65
2021/03/01 09:58:44;;;;;;;2.10;1.80;;;22.60;29.10;;;;;;4974634;28;20911;-64
2021/03/01 10:01:18;;;;;;;2.08;1.77;;;22.60;29.10;;;;;;4974228;28;20411;-65
2021/03/01 10:03:48;;;;;;;2.08;1.70;;;22.60;29.00;;;;;;4972875;28;20404;-65
2021/03/01 10:06:16;;;;;;;2.30;1.73;;;22.60;29.00;;;;;;4973364;28;20380;-65
2021/03/01 10:08:42;;;;;;;2.33;1.60;;;22.50;29.00;;;;;;4974970;28;20444;-65
2021/03/01 10:11:35;;;;;;;2.15;1.67;;;22.60;29.00;;;;;;4974988;28;20402;-65
2021/03/01 10:14:06;;;;;;;2.57;1.80;;;22.60;29.00;;;;;;4971871;28;20441;-65
2021/03/01 10:16:35;;;;;;;2.42;1.80;;;22.60;29.00;;;;;;4974929;28;20432;-65
2021/03/01 10:19:15;;;;;;;2.38;1.80;;;22.60;29.00;;;;;;4974824;28;20396;-65
2021/03/01 10:21:42;;;;;;;2.10;1.90;;;22.60;29.10;;;;;;4974206;28;20431;-65
2021/03/01 10:24:10;;;;;;;2.28;1.80;;;22.60;29.10;;;;;;4974874;28;20423;-65
2021/03/01 10:26:57;;;;;;;2.20;1.85;;;22.50;29.00;;;;;;4974312;28;20392;-64
2021/03/01 10:29:31;;;;;;;2.50;1.90;;;22.50;29.00;;;;;;4973679;28;20443;-64
2021/03/01 10:31:57;;;;;;;1.83;1.50;;;22.50;29.10;;;;;;4973250;28;20527;-64
2021/03/01 10:34:37;;;;;;;2.80;1.75;;;22.50;29.00;;;;;;4974658;28;20405;-64
2021/03/01 10:37:04;;;;;;;1.75;1.50;;;22.50;29.00;;;;;;4974632;28;20923;-65
2021/03/01 10:39:44;;;;;;;2.30;1.50;;;22.50;29.00;;;;;;4974117;28;20400;-64
2021/03/01 10:42:13;;;;;;;2.00;1.50;;;22.50;29.00;;;;;;4974451;28;20536;-64
2021/03/01 10:44:44;;;;;;;2.28;1.73;;;22.50;29.00;;;;;;4974387;28;20399;-64
2021/03/01 10:47:17;;;;;;;2.35;1.75;;;22.50;29.00;;;;;;4974253;28;20399;-64
2021/03/01 10:49:47;;;;;;;1.80;1.50;;;22.50;29.00;;;;;;4973830;28;20447;-65
2021/03/01 10:52:15;;;;;;;2.42;1.70;;;22.50;29.00;;;;;;4974141;28;20467;-64
2021/03/01 10:54:41;;;;;;;2.25;1.60;;;22.50;29.00;;;;;;4973503;28;20388;-65
2021/03/01 10:57:07;;;;;;;1.83;1.50;;;22.50;29.00;;;;;;4974149;28;20400;-64
2021/03/01 10:59:33;;;;;;;2.10;1.40;;;22.60;29.00;;;;;;4973568;28;20401;-65
2021/03/01 11:01:59;;;;;;;2.30;1.50;;;22.60;29.10;;;;;;4974266;28;20416;-65
2021/03/01 11:04:25;;;;;;;2.20;1.50;;;22.50;29.00;;;;;;4974192;28;20400;-64
2021/03/01 11:06:51;;;;;;;2.00;1.50;;;22.50;29.10;;;;;;4974018;28;20826;-65
2021/03/01 11:09:21;;;;;;;2.00;1.60;;;22.60;29.10;;;;;;4973698;28;20411;-64
2021/03/01 11:11:48;;;;;;;2.10;1.65;;;22.60;29.20;;;;;;4973317;28;20400;-65
2021/03/01 11:14:16;;;;;;;1.90;1.40;;;22.60;29.00;;;;;;4973924;28;20487;-65
2021/03/01 11:16:42;;;;;;;1.90;1.50;;;22.60;29.00;;;;;;4973188;28;20861;-65
2021/03/01 11:19:09;;;;;;;2.08;1.60;;;22.70;29.00;;;;;;4973458;28;20473;-64
2021/03/01 11:21:36;;;;;;;1.80;1.33;;;22.70;29.00;;;;;;4973211;28;20420;-64
2021/03/01 11:24:02;;;;;;;2.17;1.40;;;22.70;29.00;;;;;;4973632;28;20388;-64
2021/03/01 11:26:27;;;;;;;2.03;1.45;;;22.70;29.10;;;;;;4973642;28;20407;-65
2021/03/01 11:28:54;;;;;;;1.80;1.50;;;22.70;29.10;;;;;;4973485;28;20388;-65
2021/03/01 11:31:20;;;;;;;1.77;1.38;;;22.70;29.00;;;;;;4973540;28;20401;-65
2021/03/01 11:33:46;;;;;;;1.70;1.30;;;22.70;29.00;;;;;;4972952;28;20899;-65
2021/03/01 11:36:12;;;;;;;2.10;1.50;;;22.70;28.90;;;;;;4973415;28;20415;-65
2021/03/01 11:38:38;;;;;;;2.30;1.70;;;22.80;29.00;;;;;;4973311;28;20388;-65
2021/03/01 11:41:05;;;;;;;2.70;1.40;;;22.70;29.40;;;;;;4973357;28;20435;-65
2021/03/01 11:43:34;;;;;;;1.77;1.35;;;22.70;28.90;;;;;;4970653;28;20401;-65
2021/03/01 11:46:01;;;;;;;1.98;1.20;;;22.70;28.90;;;;;;4972968;28;20419;-65
2021/03/01 11:48:26;;;;;;;2.30;1.40;;;22.70;28.80;;;;;;4972449;28;20400;-65
2021/03/01 11:50:52;;;;;;;2.37;1.57;;;22.70;28.90;;;;;;4973175;28;20936;-65
2021/03/01 11:53:18;;;;;;;2.40;1.42;;;22.80;28.80;;;;;;4973056;28;20511;-65
2021/03/01 11:55:45;;;;;;;2.17;1.37;;;22.80;28.80;;;;;;4972746;28;20411;-65
2021/03/01 11:58:11;;;;;;;1.90;1.45;;;22.80;28.80;;;;;;4972929;28;20479;-64
2021/03/01 12:00:40;;;;;;;1.67;1.30;;;22.80;28.70;;;;;;4972924;28;20968;-64
2021/03/01 12:03:08;;;;;;;2.00;1.40;;;22.80;28.80;;;;;;4972479;28;20407;-64
2021/03/01 12:05:35;;;;;;;2.25;1.35;;;22.80;28.70;;;;;;4972498;28;20389;-65
2021/03/01 12:08:00;;;;;;;1.80;1.50;;;22.80;28.70;;;;;;4973047;28;20458;-64
2021/03/01 12:10:26;;;;;;;2.10;1.40;;;22.90;28.70;;;;;;4972977;28;20826;-64
2021/03/01 12:12:52;;;;;;;1.58;1.20;;;22.90;28.70;;;;;;4972711;28;20408;-64
2021/03/01 12:15:18;;;;;;;1.93;1.40;;;22.80;28.80;;;;;;4972852;28;20935;-64
2021/03/01 12:17:43;;;;;;;2.05;1.60;;;22.80;28.80;;;;;;4972052;28;20624;-64
2021/03/01 12:20:09;;;;;;;2.03;1.45;;;22.80;28.80;;;;;;4972148;28;20459;-64
2021/03/01 12:22:36;;;;;;;1.90;1.40;;;22.90;28.90;;;;;;4972607;28;20435;-64
2021/03/01 12:25:03;;;;;;;1.65;1.25;;;22.90;28.80;;;;;;4972763;28;20810;-65
2021/03/01 12:27:29;;;;;;;1.90;1.40;;;22.80;28.80;;;;;;4972450;28;20471;-65
2021/03/01 12:29:54;;;;;;;1.50;1.30;;;22.80;28.70;;;;;;4972474;28;20487;-65
2021/03/01 12:32:20;;;;;;;1.70;1.30;;;22.80;28.70;;;;;;4972501;28;20427;-64
2021/03/01 12:34:46;;;;;;;2.00;1.30;;;22.90;28.80;;;;;;4972003;28;20400;-65
2021/03/01 12:37:12;;;;;;;1.60;1.20;;;22.90;28.70;;;;;;4972448;28;20495;-65
2021/03/01 12:39:37;;;;;;;1.83;1.40;;;22.90;28.70;;;;;;4971884;28;20392;-65
2021/03/01 12:42:05;;;;;;;2.03;1.40;;;22.90;28.70;;;;;;4972556;28;20815;-65
2021/03/01 12:44:30;;;;;;;1.63;1.20;;;22.90;28.70;;;;;;4972572;28;20759;-65
2021/03/01 12:46:56;;;;;;;1.73;1.20;;;22.90;28.70;;;;;;4972410;28;20475;-65
2021/03/01 12:49:22;;;;;;;1.65;1.30;;;22.90;28.70;;;;;;4972616;28;20478;-65
2021/03/01 12:51:48;;;;;;;1.70;1.30;;;22.90;28.60;;;;;;4970514;28;20440;-65
2021/03/01 12:54:14;;;;;;;1.90;1.40;;;23.00;28.70;;;;;;4972436;28;20439;-64